createdAt,value
2018-03-22T00:02:12.779Z,101328.81
2018-03-22T00:04:41.111Z,101321.28
2018-03-22T00:07:09.465Z,101318.22
2018-03-22T00:09:37.795Z,101309.00
2018-03-22T00:12:06.150Z,101309.56
2018-03-22T00:14:34.484Z,101309.23
2018-03-22T00:17:02.827Z,101301.34
2018-03-22T00:19:31.162Z,101292.97
2018-03-22T00:21:59.511Z,101291.19
2018-03-22T00:24:27.838Z,101282.81
2018-03-22T00:26:56.191Z,101280.22
2018-03-22T00:29:24.524Z,101278.03
2018-03-22T00:31:52.875Z,101277.59
2018-03-22T00:34:21.203Z,101269.22
2018-03-22T00:36:49.550Z,101264.40
2018-03-22T00:39:17.889Z,101251.68
2018-03-22T00:41:46.217Z,101250.77
2018-03-22T00:44:14.547Z,101250.01
2018-03-22T00:46:42.892Z,101244.75
2018-03-22T00:49:11.217Z,101225.46
2018-03-22T00:51:39.566Z,101228.61
2018-03-22T00:54:07.893Z,101228.12
2018-03-22T00:56:36.237Z,101222.39
2018-03-22T00:59:04.570Z,101220.63
2018-03-22T01:01:32.926Z,101204.06
2018-03-22T01:04:01.254Z,101201.73
2018-03-22T01:06:29.606Z,101197.75
2018-03-22T01:08:57.931Z,101207.88
2018-03-22T01:11:26.282Z,101206.17
2018-03-22T01:13:54.610Z,101206.17
2018-03-22T01:16:22.961Z,101213.09
2018-03-22T01:18:51.281Z,101207.79
2018-03-22T01:21:19.630Z,101206.00
2018-03-22T01:23:47.960Z,101201.34
2018-03-22T01:26:16.309Z,101193.41
2018-03-22T01:28:44.639Z,101185.00
2018-03-22T01:31:12.979Z,101183.68
2018-03-22T01:33:41.306Z,101181.09
2018-03-22T01:36:09.658Z,101180.61
2018-03-22T01:38:37.987Z,101176.66
2018-03-22T01:41:06.330Z,101173.02
2018-03-22T01:43:34.653Z,101174.77
2018-03-22T01:46:03.010Z,101171.51
2018-03-22T01:48:31.340Z,101168.34
2018-03-22T01:50:59.663Z,101163.97
2018-03-22T01:53:28.010Z,101151.34
2018-03-22T01:55:56.338Z,101157.86
2018-03-22T01:58:24.685Z,101133.98
2018-03-22T02:00:53.014Z,101127.16
2018-03-22T02:03:21.362Z,101121.41
2018-03-22T02:05:49.686Z,101112.69
2018-03-22T02:08:18.038Z,101106.16
2018-03-22T02:10:46.358Z,101094.81
2018-03-22T02:13:14.707Z,101097.06
2018-03-22T02:15:43.034Z,101079.12
2018-03-22T02:18:11.386Z,101075.72
2018-03-22T02:20:39.718Z,101078.83
2018-03-22T02:23:08.067Z,101065.14
2018-03-22T02:25:36.390Z,101054.37
2018-03-22T02:28:04.740Z,101047.47
2018-03-22T02:30:33.062Z,101045.80
2018-03-22T02:33:01.411Z,101033.59
2018-03-22T02:35:29.744Z,101036.16
2018-03-22T02:37:58.084Z,101039.19
2018-03-22T02:40:26.410Z,101034.86
2018-03-22T02:42:54.759Z,101032.32
2018-03-22T02:45:23.087Z,101018.12
2018-03-22T02:47:51.438Z,101010.73
2018-03-22T02:50:19.768Z,101008.14
2018-03-22T02:52:48.118Z,100996.89
2018-03-22T02:55:16.456Z,100992.56
2018-03-22T02:57:44.803Z,100984.77
2018-03-22T03:00:13.152Z,100975.87
2018-03-22T03:02:41.483Z,100961.61
2018-03-22T03:05:09.814Z,100956.48
2018-03-22T03:07:38.163Z,100948.20
2018-03-22T03:10:06.490Z,100944.72
2018-03-22T03:12:34.838Z,100939.89
2018-03-22T03:15:03.166Z,100929.39
2018-03-22T03:17:31.513Z,100926.33
2018-03-22T03:19:59.837Z,100919.80
2018-03-22T03:22:28.190Z,100922.03
2018-03-22T03:24:56.510Z,100910.52
2018-03-22T03:27:24.863Z,100902.25
2018-03-22T03:29:53.186Z,100902.25
2018-03-22T03:32:21.534Z,100892.19
2018-03-22T03:34:49.857Z,100879.45
2018-03-22T03:37:18.207Z,100881.63
2018-03-22T03:39:46.533Z,100871.09
2018-03-22T03:42:14.885Z,100860.19
2018-03-22T03:44:43.209Z,100855.33
2018-03-22T03:47:11.557Z,100844.33
2018-03-22T03:49:39.886Z,100840.29
2018-03-22T03:52:08.214Z,100827.55
2018-03-22T03:54:36.562Z,100826.72
2018-03-22T03:57:04.891Z,100825.31
2018-03-22T03:59:33.240Z,100833.63
2018-03-22T04:02:01.563Z,100824.05
2018-03-22T04:04:29.914Z,100818.41
2018-03-22T04:06:58.250Z,100815.73
2018-03-22T04:09:26.594Z,100812.56
2018-03-22T04:11:54.924Z,100811.14
2018-03-22T04:14:23.270Z,100806.81
2018-03-22T04:16:51.593Z,100807.73
2018-03-22T04:19:19.947Z,100806.48
2018-03-22T04:21:48.269Z,100793.73
2018-03-22T04:24:16.618Z,100803.32
2018-03-22T04:26:44.946Z,100789.69
2018-03-22T04:29:13.290Z,100784.33
2018-03-22T04:31:41.622Z,100777.31
2018-03-22T04:34:09.965Z,100769.48
2018-03-22T04:36:38.295Z,100765.11
2018-03-22T04:39:06.641Z,100759.58
2018-03-22T04:41:34.966Z,100750.38
2018-03-22T04:44:03.318Z,100750.44
2018-03-22T04:46:31.642Z,100757.49
2018-03-22T04:48:59.986Z,100749.56
2018-03-22T04:51:28.310Z,100747.70
2018-03-22T04:53:56.657Z,100741.08
2018-03-22T04:56:24.986Z,100743.77
2018-03-22T04:58:53.334Z,100724.55
2018-03-22T05:01:21.662Z,100725.43
2018-03-22T05:03:50.014Z,100718.36
2018-03-22T05:06:18.337Z,100720.05
2018-03-22T05:08:46.686Z,100703.30
2018-03-22T05:11:15.010Z,100709.44
2018-03-22T05:13:43.353Z,100699.68
2018-03-22T05:16:11.677Z,100693.17
2018-03-22T05:18:40.063Z,100690.55
2018-03-22T05:21:08.365Z,100690.05
2018-03-22T05:23:36.709Z,100686.53
2018-03-22T05:26:05.034Z,100692.55
2018-03-22T05:28:33.382Z,100688.91
2018-03-22T05:31:01.706Z,100693.23
2018-03-22T05:33:30.053Z,100687.46
2018-03-22T05:35:58.377Z,100669.88
2018-03-22T05:38:26.735Z,100665.25
2018-03-22T05:40:55.069Z,100658.67
2018-03-22T05:43:23.458Z,100654.25
2018-03-22T05:45:51.738Z,100666.50
2018-03-22T05:48:20.089Z,100654.37
2018-03-22T05:50:48.413Z,100658.38
2018-03-22T05:53:16.762Z,100649.92
2018-03-22T05:55:45.110Z,100639.63
2018-03-22T05:58:13.438Z,100637.92
2018-03-22T06:00:41.785Z,100633.53
2018-03-22T06:03:10.153Z,100639.92
2018-03-22T06:05:38.457Z,100629.39
2018-03-22T06:08:06.786Z,100632.52
2018-03-22T06:10:35.139Z,100619.70
2018-03-22T06:13:03.469Z,100627.52
2018-03-22T06:15:31.814Z,100623.07
2018-03-22T06:18:00.138Z,100619.14
2018-03-22T06:20:28.489Z,100612.68
2018-03-22T06:22:56.818Z,100615.64
2018-03-22T06:25:25.171Z,100615.19
2018-03-22T06:27:53.497Z,100615.56
2018-03-22T06:30:21.846Z,100612.93
2018-03-22T06:32:50.244Z,100615.42
2018-03-22T06:35:18.526Z,100616.30
2018-03-22T06:37:46.851Z,100607.02
2018-03-22T06:40:15.199Z,100603.44
2018-03-22T06:42:43.527Z,100595.00
2018-03-22T06:45:11.878Z,100597.27
2018-03-22T06:47:40.213Z,100589.00
2018-03-22T06:50:08.554Z,100588.27
2018-03-22T06:52:36.887Z,100583.01
2018-03-22T06:55:05.234Z,100583.08
2018-03-22T06:57:33.562Z,100578.23
2018-03-22T07:00:01.910Z,100584.69
2018-03-22T07:02:30.235Z,100581.62
2018-03-22T07:04:58.586Z,100588.34
2018-03-22T07:07:26.922Z,100574.59
2018-03-22T07:09:55.269Z,100573.21
2018-03-22T07:12:23.603Z,100566.69
2018-03-22T07:14:51.951Z,100568.46
2018-03-22T07:17:20.284Z,100564.59
2018-03-22T07:19:48.689Z,100563.46
2018-03-22T07:22:16.962Z,100563.84
2018-03-22T07:24:45.994Z,100557.45
2018-03-22T07:27:14.323Z,100557.95
2018-03-22T07:29:42.678Z,100558.75
2018-03-22T07:32:11.006Z,100564.45
2018-03-22T07:34:39.357Z,100566.99
2018-03-22T07:37:07.704Z,100560.34
2018-03-22T07:39:36.059Z,100564.88
2018-03-22T07:42:04.394Z,100556.50
2018-03-22T07:44:38.438Z,100536.32
2018-03-22T07:47:07.750Z,100538.01
2018-03-22T07:49:36.106Z,100533.13
2018-03-22T07:52:04.438Z,100523.26
2018-03-22T07:54:32.785Z,100530.70
2018-03-22T07:57:01.126Z,100527.04
2018-03-22T07:59:29.450Z,100523.48
2018-03-22T08:01:57.814Z,100524.32
2018-03-22T08:04:26.134Z,100523.02
2018-03-22T08:06:54.490Z,100515.48
2018-03-22T08:09:22.833Z,100506.28
2018-03-22T08:11:51.182Z,100504.25
2018-03-22T08:14:19.505Z,100505.78
2018-03-22T08:16:47.858Z,100509.17
2018-03-22T08:19:16.189Z,100510.24
2018-03-22T08:21:44.546Z,100522.35
2018-03-22T08:24:12.879Z,100518.39
2018-03-22T08:26:41.234Z,100508.48
2018-03-22T08:29:09.566Z,100511.81
2018-03-22T08:31:37.978Z,100509.55
2018-03-22T08:34:06.251Z,100515.77
2018-03-22T08:36:34.594Z,100500.78
2018-03-22T08:39:02.930Z,100502.63
2018-03-22T08:41:31.295Z,100501.13
2018-03-22T08:43:59.624Z,100497.84
2018-03-22T08:46:28.594Z,100488.64
2018-03-22T08:48:56.921Z,100478.88
2018-03-22T08:51:25.273Z,100479.26
2018-03-22T08:53:53.604Z,100479.10
2018-03-22T08:56:21.958Z,100476.02
2018-03-22T08:58:50.285Z,100479.59
2018-03-22T09:01:18.659Z,100481.80
2018-03-22T09:03:46.981Z,100478.29
2018-03-22T09:06:16.114Z,100480.32
2018-03-22T09:08:44.455Z,100473.19
2018-03-22T09:11:12.803Z,100476.20
2018-03-22T09:13:41.136Z,100465.97
2018-03-22T09:16:09.481Z,100473.06
2018-03-22T09:18:37.814Z,100467.36
2018-03-22T09:21:06.170Z,100469.84
2018-03-22T09:23:34.497Z,100468.49
2018-03-22T09:26:02.850Z,100468.78
2018-03-22T09:28:31.177Z,100464.02
2018-03-22T09:30:59.530Z,100455.97
2018-03-22T09:33:27.862Z,100445.41
2018-03-22T09:35:56.209Z,100439.30
2018-03-22T09:38:24.546Z,100440.95
2018-03-22T09:40:52.898Z,100436.02
2018-03-22T09:43:21.230Z,100441.34
2018-03-22T09:45:49.577Z,100445.21
2018-03-22T09:48:17.919Z,100452.30
2018-03-22T09:50:46.272Z,100451.80
2018-03-22T09:53:14.598Z,100448.96
2018-03-22T09:55:42.946Z,100443.72
2018-03-22T09:58:11.277Z,100450.84
2018-03-22T10:00:39.636Z,100454.65
2018-03-22T10:03:08.382Z,100460.10
2018-03-22T10:05:36.714Z,100465.00
2018-03-22T10:08:05.070Z,100459.02
2018-03-22T10:10:33.403Z,100460.98
2018-03-22T10:13:01.763Z,100455.36
2018-03-22T10:15:30.090Z,100449.00
2018-03-22T10:17:58.450Z,100451.73
2018-03-22T10:20:26.778Z,100447.57
2018-03-22T10:22:55.135Z,100450.17
2018-03-22T10:25:23.471Z,100446.80
2018-03-22T10:27:51.830Z,100442.28
2018-03-22T10:30:20.169Z,100440.40
2018-03-22T10:32:48.669Z,100443.67
2018-03-22T10:35:17.003Z,100442.32
2018-03-22T10:37:45.358Z,100440.39
2018-03-22T10:40:13.689Z,100432.72
2018-03-22T10:42:42.682Z,100424.22
2018-03-22T10:45:11.018Z,100426.87
2018-03-22T10:47:39.366Z,100421.75
2018-03-22T10:50:07.700Z,100420.73
2018-03-22T10:52:36.065Z,100423.02
2018-03-22T10:55:04.399Z,100426.24
2018-03-22T10:57:32.749Z,100422.30
2018-03-22T11:00:01.142Z,100423.53
2018-03-22T11:02:35.043Z,100427.81
2018-03-22T11:05:03.517Z,100423.97
2018-03-22T11:07:32.114Z,100416.06
2018-03-22T11:10:00.468Z,100415.92
2018-03-22T11:12:28.831Z,100417.59
2018-03-22T11:14:57.178Z,100412.15
2018-03-22T11:17:25.531Z,100404.28
2018-03-22T11:19:53.866Z,100401.74
2018-03-22T11:22:22.280Z,100405.82
2018-03-22T11:24:50.642Z,100408.05
2018-03-22T11:27:19.028Z,100412.90
2018-03-22T11:29:47.359Z,100409.94
2018-03-22T11:32:16.041Z,100407.94
2018-03-22T11:34:44.783Z,100401.20
2018-03-22T11:37:13.499Z,100403.52
2018-03-22T11:39:42.007Z,100405.52
2018-03-22T11:42:10.625Z,100401.42
2018-03-22T11:44:39.222Z,100395.95
2018-03-22T11:47:07.826Z,100386.08
2018-03-22T11:49:36.182Z,100388.41
2018-03-22T11:52:04.562Z,100388.09
2018-03-22T11:54:32.899Z,100389.81
2018-03-22T11:57:01.253Z,100389.02
2018-03-22T11:59:29.587Z,100389.16
2018-03-22T12:01:57.951Z,100382.31
2018-03-22T12:04:26.270Z,100382.67
2018-03-22T12:06:54.639Z,100383.22
2018-03-22T12:09:22.996Z,100386.09
2018-03-22T12:11:51.314Z,100387.09
2018-03-22T12:14:19.667Z,100380.92
2018-03-22T12:16:48.010Z,100382.94
2018-03-22T12:19:16.490Z,100375.13
2018-03-22T12:21:44.877Z,100376.19
2018-03-22T12:24:13.184Z,100374.22
2018-03-22T12:26:41.515Z,100372.02
2018-03-22T12:29:09.871Z,100364.02
2018-03-22T12:31:38.203Z,100366.52
2018-03-22T12:34:06.593Z,100366.45
2018-03-22T12:36:35.878Z,100369.28
2018-03-22T12:39:04.239Z,100362.55
2018-03-22T12:41:32.578Z,100359.63
2018-03-22T12:44:00.930Z,100365.83
2018-03-22T12:46:30.195Z,100362.53
2018-03-22T12:48:58.554Z,100355.85
2018-03-22T12:51:26.908Z,100350.42
2018-03-22T12:53:55.263Z,100363.81
2018-03-22T12:56:24.527Z,100353.20
2018-03-22T12:58:52.887Z,100349.72
2018-03-22T13:01:21.213Z,100342.81
2018-03-22T13:03:49.583Z,100345.77
2018-03-22T13:06:17.910Z,100349.02
2018-03-22T13:08:46.258Z,100344.64
2018-03-22T13:11:14.606Z,100345.87
2018-03-22T13:13:42.958Z,100347.91
2018-03-22T13:16:11.294Z,100343.30
2018-03-22T13:18:39.701Z,100342.98
2018-03-22T13:21:08.008Z,100346.62
2018-03-22T13:23:36.363Z,100343.47
2018-03-22T13:26:04.690Z,100338.47
2018-03-22T13:28:33.049Z,100330.53
2018-03-22T13:31:01.403Z,100328.44
2018-03-22T13:33:29.759Z,100327.82
2018-03-22T13:35:58.096Z,100325.86
2018-03-22T13:38:26.466Z,100320.54
2018-03-22T13:40:54.795Z,100320.87
2018-03-22T13:43:23.160Z,100316.50
2018-03-22T13:45:51.482Z,100315.41
2018-03-22T13:48:19.842Z,100310.72
2018-03-22T13:50:48.184Z,100316.52
2018-03-22T13:53:16.544Z,100307.72
2018-03-22T13:55:44.884Z,100316.55
2018-03-22T13:58:13.239Z,100308.61
2018-03-22T14:00:41.576Z,100316.77
2018-03-22T14:03:09.927Z,100310.53
2018-03-22T14:05:38.266Z,100313.66
2018-03-22T14:08:06.614Z,100313.47
2018-03-22T14:10:34.951Z,100307.28
2018-03-22T14:13:03.314Z,100310.78
2018-03-22T14:15:31.646Z,100310.44
2018-03-22T14:17:59.974Z,100304.69
2018-03-22T14:20:28.352Z,100300.44
2018-03-22T14:22:56.700Z,100304.03
2018-03-22T14:25:25.146Z,100298.56
2018-03-22T14:27:53.482Z,100296.58
2018-03-22T14:30:21.858Z,100300.55
2018-03-22T14:32:50.198Z,100298.81
2018-03-22T14:35:18.824Z,100292.17
2018-03-22T14:37:47.275Z,100302.19
2018-03-22T14:40:15.635Z,100295.77
2018-03-22T14:42:44.031Z,100300.42
2018-03-22T14:45:12.410Z,100297.09
2018-03-22T14:47:40.753Z,100289.58
2018-03-22T14:50:09.102Z,100294.09
2018-03-22T14:52:37.458Z,100291.93
2018-03-22T14:55:05.896Z,100293.98
2018-03-22T14:57:34.247Z,100294.16
2018-03-22T15:00:02.618Z,100287.13
2018-03-22T15:02:31.000Z,100293.38
2018-03-22T15:04:59.386Z,100298.42
2018-03-22T15:07:27.742Z,100292.52
2018-03-22T15:09:56.094Z,100292.27
2018-03-22T15:12:24.531Z,100289.75
2018-03-22T15:14:53.027Z,100286.56
2018-03-22T15:17:21.571Z,100285.92
2018-03-22T15:19:49.925Z,100284.86
2018-03-22T15:22:18.254Z,100284.41
2018-03-22T15:24:46.626Z,100280.08
2018-03-22T15:27:14.986Z,100283.45
2018-03-22T15:29:43.360Z,100281.26
2018-03-22T15:32:11.814Z,100288.23
2018-03-22T15:34:40.160Z,100289.00
2018-03-22T15:37:09.354Z,100287.25
2018-03-22T15:39:37.702Z,100276.45
2018-03-22T15:42:06.031Z,100267.54
2018-03-22T15:44:34.404Z,100283.27
2018-03-22T15:47:02.891Z,100288.91
2018-03-22T15:49:31.240Z,100289.92
2018-03-22T15:51:59.571Z,100292.89
2018-03-22T15:54:27.915Z,100297.30
2018-03-22T15:56:56.242Z,100297.75
2018-03-22T15:59:24.583Z,100294.30
2018-03-22T16:01:52.906Z,100297.20
2018-03-22T16:04:21.255Z,100298.86
2018-03-22T16:06:50.530Z,100299.45
2018-03-22T16:09:18.891Z,100289.83
2018-03-22T16:11:47.225Z,100296.83
2018-03-22T16:14:15.566Z,100301.61
2018-03-22T16:16:43.903Z,100301.76
2018-03-22T16:19:12.226Z,100303.48
2018-03-22T16:21:40.590Z,100312.64
2018-03-22T16:24:08.946Z,100310.41
2018-03-22T16:26:38.235Z,100314.20
2018-03-22T16:29:06.917Z,100310.20
2018-03-22T16:31:35.268Z,100313.48
2018-03-22T16:34:03.639Z,100315.39
2018-03-22T16:36:32.233Z,100316.16
2018-03-22T16:39:00.554Z,100311.90
2018-03-22T16:41:28.907Z,100313.14
2018-03-22T16:43:57.242Z,100313.14
2018-03-22T16:46:25.594Z,100312.19
2018-03-22T16:48:53.917Z,100310.37
2018-03-22T16:51:22.269Z,100312.91
2018-03-22T16:53:50.586Z,100313.69
2018-03-22T16:56:19.915Z,100319.69
2018-03-22T16:58:48.246Z,100315.79
2018-03-22T17:01:16.590Z,100313.06
2018-03-22T17:03:44.914Z,100315.13
2018-03-22T17:06:14.259Z,100309.25
2018-03-22T17:08:42.598Z,100313.60
2018-03-22T17:11:11.054Z,100320.42
2018-03-22T17:13:39.419Z,100327.58
2018-03-22T17:16:07.733Z,100324.15
2018-03-22T17:18:36.053Z,100311.09
2018-03-22T17:21:04.391Z,100308.02
2018-03-22T17:23:32.735Z,100313.72
2018-03-22T17:26:01.078Z,100322.45
2018-03-22T17:28:29.402Z,100324.66
2018-03-22T17:30:57.791Z,100323.34
2018-03-22T17:33:26.338Z,100323.17
2018-03-22T17:35:54.690Z,100326.56
2018-03-22T17:38:23.014Z,100336.67
2018-03-22T17:40:51.363Z,100335.30
2018-03-22T17:43:19.694Z,100331.58
2018-03-22T17:45:48.062Z,100322.05
2018-03-22T17:48:16.399Z,100324.49
2018-03-22T17:50:44.751Z,100323.05
2018-03-22T17:53:13.082Z,100323.70
2018-03-22T17:55:42.286Z,100322.58
2018-03-22T17:58:10.623Z,100333.55
2018-03-22T18:00:38.970Z,100330.50
2018-03-22T18:03:07.311Z,100337.17
2018-03-22T18:05:35.654Z,100346.42
2018-03-22T18:08:03.982Z,100338.87
2018-03-22T18:10:36.786Z,100344.30
2018-03-22T18:13:07.028Z,100339.33
2018-03-22T18:15:35.391Z,100333.56
2018-03-22T18:18:03.710Z,100333.01
2018-03-22T18:20:32.054Z,100335.66
2018-03-22T18:23:00.374Z,100337.93
2018-03-22T18:25:28.734Z,100332.66
2018-03-22T18:27:57.051Z,100333.75
2018-03-22T18:30:25.374Z,100336.02
2018-03-22T18:32:53.714Z,100333.75
2018-03-22T18:35:22.108Z,100339.72
2018-03-22T18:37:50.392Z,100349.59
2018-03-22T18:40:18.719Z,100343.38
2018-03-22T18:42:47.058Z,100352.96
2018-03-22T18:45:15.378Z,100354.61
2018-03-22T18:47:43.718Z,100356.77
2018-03-22T18:50:12.046Z,100354.34
2018-03-22T18:52:40.398Z,100349.28
2018-03-22T18:55:08.727Z,100350.67
2018-03-22T18:57:37.066Z,100351.40
2018-03-22T19:00:05.411Z,100351.45
2018-03-22T19:02:33.798Z,100358.14
2018-03-22T19:05:02.162Z,100357.28
2018-03-22T19:07:30.489Z,100355.93
2018-03-22T19:09:58.818Z,100362.47
2018-03-22T19:12:27.165Z,100351.50
2018-03-22T19:14:55.493Z,100356.06
2018-03-22T19:17:23.843Z,100360.90
2018-03-22T19:19:52.175Z,100362.70
2018-03-22T19:22:20.516Z,100358.33
2018-03-22T19:24:48.838Z,100364.83
2018-03-22T19:27:17.181Z,100365.77
2018-03-22T19:29:45.515Z,100366.96
2018-03-22T19:32:13.875Z,100363.02
2018-03-22T19:34:42.206Z,100354.48
2018-03-22T19:37:10.613Z,100356.81
2018-03-22T19:39:38.888Z,100358.91
2018-03-22T19:42:07.234Z,100364.39
2018-03-22T19:44:35.565Z,100360.86
2018-03-22T19:47:03.922Z,100357.67
2018-03-22T19:49:32.255Z,100356.81
2018-03-22T19:52:00.602Z,100358.89
2018-03-22T19:54:28.938Z,100359.84
2018-03-22T19:56:58.154Z,100360.67
2018-03-22T19:59:26.490Z,100359.11
2018-03-22T20:01:54.838Z,100353.10
2018-03-22T20:04:23.181Z,100354.81
2018-03-22T20:06:51.535Z,100356.85
2018-03-22T20:09:19.875Z,100358.02
2018-03-22T20:11:48.222Z,100360.21
2018-03-22T20:14:16.557Z,100363.47
2018-03-22T20:16:44.907Z,100360.49
2018-03-22T20:19:13.239Z,100360.36
2018-03-22T20:21:41.599Z,100362.60
2018-03-22T20:24:09.927Z,100352.33
2018-03-22T20:26:39.235Z,100354.85
2018-03-22T20:29:07.570Z,100354.47
2018-03-22T20:31:35.897Z,100356.63
2018-03-22T20:34:04.246Z,100355.02
2018-03-22T20:36:32.588Z,100358.15
2018-03-22T20:39:00.930Z,100355.02
2018-03-22T20:41:29.254Z,100352.81
2018-03-22T20:43:57.598Z,100352.73
2018-03-22T20:46:25.931Z,100355.77
2018-03-22T20:48:54.275Z,100358.41
2018-03-22T20:51:22.606Z,100359.73
2018-03-22T20:53:50.961Z,100355.05
2018-03-22T20:56:19.295Z,100354.77
2018-03-22T20:58:47.639Z,100348.19
2018-03-22T21:01:15.970Z,100352.13
2018-03-22T21:03:44.324Z,100347.02
2018-03-22T21:06:13.635Z,100346.53
2018-03-22T21:08:41.978Z,100348.28
2018-03-22T21:11:10.306Z,100349.86
2018-03-22T21:13:38.646Z,100346.45
2018-03-22T21:16:07.111Z,100351.43
2018-03-22T21:18:35.444Z,100349.78
2018-03-22T21:21:03.770Z,100350.79
2018-03-22T21:23:32.111Z,100346.00
2018-03-22T21:26:00.421Z,100352.48
2018-03-22T21:28:28.762Z,100347.26
2018-03-22T21:30:57.106Z,100345.75
2018-03-22T21:33:25.446Z,100348.84
2018-03-22T21:35:54.438Z,100350.44
2018-03-22T21:38:22.778Z,100356.73
2018-03-22T21:40:51.094Z,100346.27
2018-03-22T21:43:19.440Z,100357.24
2018-03-22T21:45:47.867Z,100351.86
2018-03-22T21:48:16.191Z,100354.38
2018-03-22T21:50:49.962Z,100360.35
2018-03-22T21:53:18.402Z,100354.06
2018-03-22T21:55:46.725Z,100352.91
2018-03-22T21:58:15.067Z,100350.41
2018-03-22T22:00:43.391Z,100345.60
2018-03-22T22:03:11.738Z,100342.61
2018-03-22T22:05:40.056Z,100344.34
2018-03-22T22:08:08.390Z,100339.50
2018-03-22T22:10:36.706Z,100339.62
2018-03-22T22:13:05.043Z,100347.19
2018-03-22T22:15:33.366Z,100342.08
2018-03-22T22:18:01.889Z,100342.61
2018-03-22T22:20:30.206Z,100347.28
2018-03-22T22:22:58.546Z,100338.96
2018-03-22T22:25:26.870Z,100331.26
2018-03-22T22:27:55.214Z,100333.88
2018-03-22T22:30:23.531Z,100333.90
2018-03-22T22:32:51.885Z,100332.46
2018-03-22T22:35:20.207Z,100328.81
2018-03-22T22:37:48.546Z,100326.07
2018-03-22T22:40:16.895Z,100317.88
2018-03-22T22:42:45.208Z,100314.45
2018-03-22T22:45:13.550Z,100314.30
2018-03-22T22:47:41.874Z,100313.14
2018-03-22T22:50:10.202Z,100315.43
2018-03-22T22:52:38.526Z,100315.29
2018-03-22T22:55:06.861Z,69517.36
2018-03-22T22:57:35.171Z,69521.59
2018-03-22T23:00:03.503Z,69528.91
2018-03-22T23:02:31.805Z,69528.73
2018-03-22T23:05:00.134Z,69518.97
2018-03-22T23:07:28.451Z,69517.17
2018-03-22T23:09:56.779Z,69512.84
2018-03-22T23:12:25.087Z,69517.45
2018-03-22T23:14:53.410Z,69517.28
2018-03-22T23:17:21.721Z,69520.80
2018-03-22T23:19:50.056Z,69524.42
2018-03-22T23:22:18.358Z,69517.88
2018-03-22T23:24:46.689Z,69524.42
2018-03-22T23:27:15.002Z,69527.04
2018-03-22T23:29:43.329Z,69522.91
2018-03-22T23:32:11.638Z,69523.67
2018-03-22T23:34:39.970Z,69515.66
2018-03-22T23:37:08.278Z,69519.59
2018-03-22T23:39:36.606Z,69523.28
2018-03-22T23:42:04.914Z,69527.30
2018-03-22T23:44:33.250Z,69533.03
2018-03-22T23:47:01.554Z,69536.16
2018-03-22T23:49:29.886Z,69530.33
2018-03-22T23:51:58.190Z,69537.34
2018-03-22T23:54:26.517Z,69538.73
2018-03-22T23:56:54.835Z,69535.63
2018-03-22T23:59:23.168Z,69543.25
